createdAt,value
2019-04-20T00:00:54.549Z,100930.55
2019-04-20T00:03:23.694Z,100929.72
2019-04-20T00:05:53.175Z,100929.97
2019-04-20T00:08:26.517Z,100927.97
2019-04-20T00:11:02.381Z,100934.70
2019-04-20T00:13:37.829Z,100948.48
2019-04-20T00:15:55.815Z,100980.70
2019-04-20T00:18:32.925Z,100951.47
2019-04-20T00:21:03.865Z,100951.70
2019-04-20T00:23:38.349Z,100953.79
2019-04-20T00:26:34.089Z,100961.85
2019-04-20T00:29:10.230Z,100966.34
2019-04-20T00:31:42.157Z,100964.98
2019-04-20T00:34:06.142Z,100957.12
2019-04-20T00:36:26.273Z,100960.84
2019-04-20T00:39:00.965Z,100964.53
2019-04-20T00:41:27.744Z,100963.75
2019-04-20T00:44:04.669Z,100968.84
2019-04-20T00:46:35.694Z,100958.41
2019-04-20T00:49:15.204Z,100956.33
2019-04-20T00:51:44.897Z,100959.46
2019-04-20T00:54:02.602Z,100951.98
2019-04-20T00:56:32.961Z,100951.38
2019-04-20T00:59:13.018Z,100946.34
2019-04-20T01:01:52.435Z,100944.80
2019-04-20T01:04:19.836Z,100945.70
2019-04-20T01:07:11.271Z,100945.23
2019-04-20T01:09:45.430Z,100944.98
2019-04-20T01:12:20.536Z,100951.69
2019-04-20T01:14:52.110Z,100951.76
2019-04-20T01:17:17.026Z,100947.94
2019-04-20T01:19:48.821Z,100946.03
2019-04-20T01:22:21.871Z,100942.76
2019-04-20T01:24:48.724Z,100945.92
2019-04-20T01:27:32.168Z,100949.05
2019-04-20T01:30:02.281Z,100947.91
2019-04-20T01:32:31.081Z,100942.86
2019-04-20T01:35:03.964Z,100953.37
2019-04-20T01:37:32.820Z,100953.11
2019-04-20T01:39:57.262Z,100953.58
2019-04-20T01:42:25.535Z,100954.95
2019-04-20T01:44:56.783Z,100957.53
2019-04-20T01:47:32.309Z,100950.44
2019-04-20T01:50:04.727Z,100954.33
2019-04-20T01:52:39.752Z,100948.82
2019-04-20T01:55:24.513Z,100952.84
2019-04-20T01:57:58.327Z,100943.92
2019-04-20T02:00:35.658Z,100940.17
2019-04-20T02:03:08.210Z,100943.98
2019-04-20T02:05:38.624Z,100945.61
2019-04-20T02:08:12.838Z,100940.86
2019-04-20T02:10:45.960Z,100939.64
2019-04-20T02:13:11.039Z,100945.78
2019-04-20T02:15:48.002Z,100946.86
2019-04-20T02:18:23.144Z,100952.53
2019-04-20T02:21:01.311Z,100952.61
2019-04-20T02:23:24.945Z,100960.84
2019-04-20T02:25:44.188Z,100957.78
2019-04-20T02:28:27.241Z,100957.78
2019-04-20T02:36:42.911Z,100960.44
2019-04-20T02:44:18.061Z,100949.72
2019-04-20T02:46:42.997Z,100949.58
2019-04-20T02:49:29.637Z,100952.24
2019-04-20T02:51:42.342Z,100960.44
2019-04-20T02:59:42.281Z,100961.64
2019-04-20T03:01:36.808Z,100968.05
2019-04-20T03:03:52.619Z,100972.36
2019-04-20T03:06:30.770Z,100970.30
2019-04-20T03:09:17.723Z,100979.47
2019-04-20T03:11:52.944Z,100975.19
2019-04-20T03:14:09.509Z,100971.51
2019-04-20T03:16:39.681Z,100971.97
2019-04-20T03:19:12.982Z,100974.09
2019-04-20T03:21:45.461Z,100976.32
2019-04-20T03:24:23.796Z,100974.09
2019-04-20T03:26:47.730Z,100977.98
2019-04-20T03:29:13.002Z,100985.87
2019-04-20T03:37:04.129Z,101002.39
2019-04-20T03:39:23.239Z,101002.86
2019-04-20T03:41:44.447Z,101007.11
2019-04-20T03:44:15.657Z,101009.77
2019-04-20T03:46:47.940Z,101000.47
2019-04-20T03:49:39.699Z,101007.50
2019-04-20T03:52:02.600Z,101012.87
2019-04-20T03:54:31.866Z,101012.63
2019-04-20T03:57:12.431Z,101013.98
2019-04-20T03:59:43.677Z,101018.82
2019-04-20T04:02:43.068Z,101024.45
2019-04-20T04:04:59.420Z,101018.05
2019-04-20T04:07:19.522Z,101022.70
2019-04-20T04:09:58.646Z,101026.12
2019-04-20T04:12:51.772Z,101027.88
2019-04-20T04:15:21.240Z,101027.11
2019-04-20T04:17:51.476Z,101024.83
2019-04-20T04:20:22.429Z,101027.75
2019-04-20T04:23:09.989Z,101033.50
2019-04-20T04:25:33.524Z,101031.59
2019-04-20T04:28:10.594Z,101033.12
2019-04-20T04:30:36.521Z,101032.22
2019-04-20T04:35:40.238Z,101032.87
2019-04-20T04:38:24.102Z,101034.63
2019-04-20T04:40:59.019Z,101041.17
2019-04-20T04:43:22.462Z,101037.28
2019-04-20T04:45:31.940Z,101044.59
2019-04-20T04:48:02.001Z,101041.53
2019-04-20T04:50:32.954Z,101044.17
2019-04-20T04:53:09.386Z,101053.09
2019-04-20T04:55:43.951Z,101052.61
2019-04-20T04:58:04.407Z,101047.83
2019-04-20T05:00:35.655Z,101049.64
2019-04-20T05:03:23.328Z,101048.75
2019-04-20T05:06:01.808Z,101057.10
2019-04-20T05:08:25.310Z,101058.28
2019-04-20T05:10:47.837Z,101063.73
2019-04-20T05:13:17.757Z,101069.00
2019-04-20T05:16:00.432Z,101071.61
2019-04-20T05:18:41.498Z,101073.94
2019-04-20T05:21:10.155Z,101076.17
2019-04-20T05:23:37.881Z,101084.00
2019-04-20T05:26:20.046Z,101084.58
2019-04-20T05:28:45.788Z,101094.16
2019-04-20T05:31:07.965Z,101100.20
2019-04-20T05:34:03.617Z,101103.92
2019-04-20T05:36:29.647Z,101106.62
2019-04-20T05:39:09.228Z,101113.82
2019-04-20T05:41:26.925Z,101118.05
2019-04-20T05:44:03.685Z,101114.47
2019-04-20T05:46:35.378Z,101120.05
2019-04-20T05:49:13.437Z,101126.92
2019-04-20T05:51:39.511Z,101125.91
2019-04-20T05:54:15.576Z,101125.18
2019-04-20T05:56:47.739Z,101125.28
2019-04-20T05:59:11.161Z,101124.54
2019-04-20T06:01:48.852Z,101129.97
2019-04-20T06:04:17.280Z,101127.94
2019-04-20T06:06:49.690Z,101128.16
2019-04-20T06:09:23.106Z,101133.85
2019-04-20T06:12:04.881Z,101132.44
2019-04-20T06:14:19.339Z,101132.00
2019-04-20T06:17:11.297Z,101131.72
2019-04-20T06:19:35.897Z,101128.63
2019-04-20T06:22:21.048Z,101130.58
2019-04-20T06:25:10.128Z,101135.20
2019-04-20T06:27:16.114Z,101136.33
2019-04-20T06:29:45.759Z,101135.95
2019-04-20T06:32:21.481Z,101144.94
2019-04-20T06:34:42.532Z,101139.41
2019-04-20T06:37:17.224Z,101142.73
2019-04-20T06:42:18.077Z,101140.17
2019-04-20T06:44:48.407Z,101135.49
2019-04-20T06:47:24.867Z,101143.06
2019-04-20T06:49:51.586Z,101147.42
2019-04-20T06:52:27.502Z,101144.43
2019-04-20T06:55:07.000Z,101149.65
2019-04-20T06:57:52.781Z,101150.06
2019-04-20T07:00:15.344Z,101156.66
2019-04-20T07:05:18.941Z,101157.73
2019-04-20T07:12:48.102Z,101158.58
2019-04-20T07:15:19.951Z,101161.88
2019-04-20T07:17:57.275Z,101159.10
2019-04-20T07:20:35.138Z,101159.73
2019-04-20T07:23:12.934Z,101163.97
2019-04-20T07:25:39.005Z,101163.66
2019-04-20T07:28:05.447Z,101162.63
2019-04-20T07:30:35.437Z,101168.02
2019-04-20T07:33:04.233Z,101163.47
2019-04-20T07:35:36.024Z,101164.55
2019-04-20T07:38:30.873Z,101162.98
2019-04-20T07:40:38.268Z,101164.66
2019-04-20T07:43:13.344Z,101157.48
2019-04-20T07:45:40.101Z,101167.73
2019-04-20T07:48:25.780Z,101164.87
2019-04-20T07:50:37.607Z,101164.38
2019-04-20T07:53:15.913Z,101172.70
2019-04-20T07:55:54.052Z,101175.16
2019-04-20T07:58:15.635Z,101176.09
2019-04-20T08:01:05.707Z,101172.55
2019-04-20T08:03:42.793Z,101167.38
2019-04-20T08:06:00.764Z,101160.56
2019-04-20T08:08:42.210Z,101164.64
2019-04-20T08:11:07.468Z,101168.75
2019-04-20T08:13:47.929Z,101163.95
2019-04-20T08:16:24.415Z,101172.61
2019-04-20T08:21:25.451Z,101175.47
2019-04-20T08:23:58.145Z,101172.00
2019-04-20T08:26:14.435Z,101175.02
2019-04-20T08:28:51.964Z,101178.19
2019-04-20T08:31:49.065Z,101171.94
2019-04-20T08:34:31.422Z,101181.71
2019-04-20T08:37:03.276Z,101177.16
2019-04-20T08:42:11.642Z,101171.63
2019-04-20T08:47:15.450Z,101163.52
2019-04-20T08:49:34.831Z,101169.45
2019-04-20T08:52:22.974Z,101161.73
2019-04-20T08:54:31.280Z,101157.06
2019-04-20T08:56:53.679Z,101162.05
2019-04-20T08:59:18.878Z,101162.00
2019-04-20T09:01:48.931Z,101168.16
2019-04-20T09:04:24.237Z,101166.47
2019-04-20T09:07:02.394Z,101158.30
2019-04-20T09:09:56.362Z,101160.36
2019-04-20T09:12:11.880Z,101152.95
2019-04-20T09:14:23.769Z,101158.20
2019-04-20T09:17:00.272Z,101159.91
2019-04-20T09:19:37.951Z,101156.48
2019-04-20T09:22:28.005Z,101163.17
2019-04-20T09:25:13.109Z,101160.50
2019-04-20T09:27:25.365Z,101161.22
2019-04-20T09:30:04.306Z,101165.50
2019-04-20T09:32:48.577Z,101160.52
2019-04-20T09:35:34.255Z,101159.08
2019-04-20T09:38:05.155Z,101147.70
2019-04-20T09:40:40.236Z,101150.27
2019-04-20T09:43:02.610Z,101162.54
2019-04-20T09:45:45.068Z,101153.50
2019-04-20T09:48:18.188Z,101156.02
2019-04-20T09:51:07.891Z,101155.30
2019-04-20T09:53:25.782Z,101152.31
2019-04-20T09:56:04.673Z,101157.64
2019-04-20T09:58:28.046Z,101152.67
2019-04-20T10:01:01.772Z,101151.67
2019-04-20T10:03:18.533Z,101156.69
2019-04-20T10:05:48.038Z,101161.95
2019-04-20T10:08:17.617Z,101156.13
2019-04-20T10:10:48.935Z,101159.09
2019-04-20T10:13:19.418Z,101156.38
2019-04-20T10:15:49.989Z,101156.51
2019-04-20T10:18:19.776Z,101141.52
2019-04-20T10:20:49.619Z,101142.48
2019-04-20T10:23:20.468Z,101145.45
2019-04-20T10:25:50.935Z,101136.90
2019-04-20T10:28:21.561Z,101142.52
2019-04-20T10:30:50.906Z,101140.44
2019-04-20T10:33:20.058Z,101139.16
2019-04-20T10:35:49.651Z,101136.94
2019-04-20T10:38:33.953Z,101132.27
2019-04-20T10:41:08.292Z,101142.04
2019-04-20T10:43:33.238Z,101138.13
2019-04-20T10:46:02.736Z,101138.06
2019-04-20T10:48:41.367Z,101134.27
2019-04-20T10:51:03.636Z,101125.92
2019-04-20T10:53:32.953Z,101120.77
2019-04-20T10:56:03.438Z,101121.28
2019-04-20T10:58:33.765Z,101121.00
2019-04-20T11:01:03.946Z,101113.70
2019-04-20T11:03:34.575Z,101116.23
2019-04-20T11:06:04.795Z,101118.19
2019-04-20T11:08:34.868Z,101116.45
2019-04-20T11:11:12.888Z,101114.31
2019-04-20T11:13:35.332Z,101117.80
2019-04-20T11:16:04.641Z,101116.55
2019-04-20T11:18:33.878Z,101113.48
2019-04-20T11:21:03.611Z,101111.58
2019-04-20T11:23:34.114Z,101108.48
2019-04-20T11:26:04.335Z,101113.73
2019-04-20T11:28:34.434Z,101108.55
2019-04-20T11:31:04.100Z,101104.83
2019-04-20T11:33:34.207Z,101105.39
2019-04-20T11:36:03.678Z,101102.86
2019-04-20T11:38:33.199Z,101105.76
2019-04-20T11:41:11.290Z,101099.56
2019-04-20T11:43:33.662Z,101105.84
2019-04-20T11:46:03.248Z,101105.69
2019-04-20T11:48:33.848Z,101100.50
2019-04-20T11:51:03.510Z,101099.81
2019-04-20T11:53:34.190Z,101108.97
2019-04-20T11:56:06.651Z,101104.18
2019-04-20T11:58:36.046Z,101106.93
2019-04-20T12:01:27.193Z,101106.07
2019-04-20T12:04:01.951Z,101106.62
2019-04-20T12:06:26.587Z,101096.84
2019-04-20T12:08:56.993Z,101088.50
2019-04-20T12:11:33.972Z,101090.44
2019-04-20T12:13:58.558Z,101081.30
2019-04-20T12:16:28.258Z,101082.33
2019-04-20T12:18:57.517Z,101084.67
2019-04-20T12:21:26.711Z,101088.31
2019-04-20T12:23:56.291Z,101077.09
2019-04-20T12:26:26.904Z,101077.58
2019-04-20T12:28:56.362Z,101071.83
2019-04-20T12:31:27.591Z,101062.39
2019-04-20T12:33:56.582Z,101061.70
2019-04-20T12:36:26.081Z,101060.09
2019-04-20T12:38:55.432Z,101060.40
2019-04-20T12:41:36.646Z,101052.38
2019-04-20T12:43:56.112Z,101045.09
2019-04-20T12:46:26.751Z,101047.09
2019-04-20T12:48:57.680Z,101051.73
2019-04-20T12:51:33.767Z,101055.69
2019-04-20T12:53:58.349Z,101050.84
2019-04-20T12:56:28.546Z,101058.52
2019-04-20T12:58:57.871Z,101052.91
2019-04-20T13:01:28.023Z,101057.62
2019-04-20T13:03:57.808Z,101047.27
2019-04-20T13:06:57.798Z,101046.59
2019-04-20T13:09:30.599Z,101044.10
2019-04-20T13:14:06.371Z,101036.19
2019-04-20T13:16:38.701Z,101038.84
2019-04-20T13:19:08.972Z,101041.91
2019-04-20T13:21:39.038Z,101044.15
2019-04-20T13:24:09.339Z,101045.25
2019-04-20T13:26:38.864Z,101038.00
2019-04-20T13:29:08.740Z,101037.99
2019-04-20T13:31:38.236Z,101043.66
2019-04-20T13:34:07.669Z,101034.91
2019-04-20T13:36:38.056Z,101031.88
2019-04-20T13:39:08.274Z,101037.70
2019-04-20T13:41:38.130Z,101039.66
2019-04-20T13:44:08.344Z,101040.84
2019-04-20T13:46:38.876Z,101027.27
2019-04-20T13:49:09.276Z,101026.94
2019-04-20T13:51:39.155Z,101031.10
2019-04-20T13:54:14.948Z,101034.14
2019-04-20T13:56:39.865Z,101026.09
2019-04-20T13:59:30.011Z,101022.98
2019-04-20T14:02:18.684Z,101024.18
2019-04-20T14:04:56.667Z,101028.12
2019-04-20T14:07:27.061Z,101017.43
2019-04-20T14:09:57.457Z,101016.06
2019-04-20T14:12:32.459Z,101022.02
2019-04-20T14:14:59.360Z,101021.48
2019-04-20T14:17:33.011Z,101014.08
2019-04-20T14:20:07.365Z,101011.10
2019-04-20T14:22:33.561Z,101012.67
2019-04-20T14:25:03.043Z,101002.47
2019-04-20T14:27:32.969Z,100997.62
2019-04-20T14:30:03.494Z,100998.47
2019-04-20T14:32:33.038Z,100996.43
2019-04-20T14:35:03.105Z,100993.03
2019-04-20T14:37:33.004Z,100999.00
2019-04-20T14:40:04.085Z,101000.21
2019-04-20T14:42:40.549Z,100995.08
2019-04-20T14:45:06.810Z,100995.31
2019-04-20T14:47:36.230Z,100992.38
2019-04-20T14:50:09.778Z,100991.45
2019-04-20T14:52:39.724Z,100988.34
2019-04-20T14:55:13.434Z,100993.27
2019-04-20T14:57:41.508Z,100993.77
2019-04-20T15:00:29.935Z,100989.06
2019-04-20T15:03:01.850Z,100985.41
2019-04-20T15:05:31.312Z,100983.78
2019-04-20T15:08:00.791Z,100985.23
2019-04-20T15:10:31.069Z,100984.20
2019-04-20T15:13:04.272Z,100987.71
2019-04-20T15:15:32.552Z,100991.58
2019-04-20T15:18:06.795Z,100992.41
2019-04-20T15:20:41.657Z,100993.28
2019-04-20T15:23:12.799Z,100993.64
2019-04-20T15:25:42.317Z,100993.59
2019-04-20T15:28:12.354Z,100990.47
2019-04-20T15:30:42.505Z,100987.41
2019-04-20T15:33:12.711Z,100984.06
2019-04-20T15:35:42.231Z,100980.25
2019-04-20T15:38:11.677Z,100985.89
2019-04-20T15:40:41.461Z,100980.39
2019-04-20T15:43:15.855Z,100972.78
2019-04-20T15:45:43.426Z,100977.59
2019-04-20T15:48:14.288Z,100976.65
2019-04-20T15:50:43.823Z,100975.50
2019-04-20T15:53:13.485Z,100966.45
2019-04-20T15:55:43.852Z,100966.23
2019-04-20T15:58:14.358Z,100968.86
2019-04-20T16:00:44.681Z,100961.72
2019-04-20T16:03:17.224Z,100963.67
2019-04-20T16:05:51.556Z,100960.22
2019-04-20T16:08:23.760Z,100957.70
2019-04-20T16:10:53.303Z,100959.77
2019-04-20T16:13:31.450Z,100957.94
2019-04-20T16:15:53.902Z,100958.75
2019-04-20T16:18:23.346Z,100949.33
2019-04-20T16:21:00.386Z,100953.36
2019-04-20T16:23:24.944Z,100951.72
2019-04-20T16:26:01.911Z,100947.91
2019-04-20T16:28:32.051Z,100947.54
2019-04-20T16:31:01.677Z,100943.79
2019-04-20T16:33:32.553Z,100942.63
2019-04-20T16:36:02.646Z,100940.29
2019-04-20T16:38:33.086Z,100936.55
2019-04-20T16:41:02.675Z,100946.09
2019-04-20T16:43:37.399Z,100943.29
2019-04-20T16:46:03.501Z,100942.61
2019-04-20T16:48:33.818Z,100946.59
2019-04-20T16:51:04.791Z,100944.77
2019-04-20T16:53:34.978Z,100944.30
2019-04-20T16:56:04.623Z,100935.16
2019-04-20T16:58:33.979Z,100939.94
2019-04-20T17:01:03.738Z,100940.77
2019-04-20T17:03:48.905Z,100943.39
2019-04-20T17:06:06.385Z,100939.82
2019-04-20T17:08:36.818Z,100947.22
2019-04-20T17:11:07.752Z,100949.91
2019-04-20T17:13:44.060Z,100948.03
2019-04-20T17:16:10.031Z,100950.16
2019-04-20T17:18:39.666Z,100953.80
2019-04-20T17:21:16.554Z,100952.49
2019-04-20T17:23:43.328Z,100950.80
2019-04-20T17:26:12.923Z,100952.05
2019-04-20T17:29:01.761Z,100951.08
2019-04-20T17:31:43.047Z,100957.48
2019-04-20T17:34:29.757Z,100959.08
2019-04-20T17:36:44.472Z,100960.97
2019-04-20T17:39:25.911Z,100960.75
2019-04-20T17:42:03.044Z,100960.54
2019-04-20T17:44:34.280Z,100964.36
2019-04-20T17:47:00.494Z,100959.55
2019-04-20T17:49:31.550Z,100970.68
2019-04-20T17:52:11.937Z,100968.16
2019-04-20T17:54:22.864Z,100965.23
2019-04-20T17:56:52.353Z,100972.87
2019-04-20T17:59:22.233Z,100967.04
2019-04-20T18:02:07.877Z,100964.30
2019-04-20T18:04:53.792Z,100972.87
2019-04-20T18:07:18.350Z,100977.55
2019-04-20T18:09:49.202Z,100977.17
2019-04-20T18:12:07.541Z,100978.20
2019-04-20T18:14:48.936Z,100981.35
2019-04-20T18:17:19.193Z,100985.21
2019-04-20T18:19:38.935Z,100983.38
2019-04-20T18:22:10.000Z,100984.89
2019-04-20T18:25:02.629Z,100986.48
2019-04-20T18:27:31.703Z,100989.16
2019-04-20T18:30:04.070Z,100992.66
2019-04-20T18:32:23.307Z,100989.37
2019-04-20T18:34:58.505Z,100994.41
2019-04-20T18:37:26.845Z,100993.94
2019-04-20T18:40:05.106Z,101000.48
2019-04-20T18:42:34.352Z,101004.92
2019-04-20T18:45:15.990Z,100996.68
2019-04-20T18:47:49.596Z,100998.97
2019-04-20T18:50:11.779Z,101005.96
2019-04-20T18:52:33.726Z,101005.50
2019-04-20T18:55:08.795Z,101006.93
2019-04-20T18:57:37.915Z,101006.00
2019-04-20T19:00:17.994Z,101007.34
2019-04-20T19:02:45.425Z,101009.80
2019-04-20T19:05:11.512Z,101005.48
2019-04-20T19:07:51.614Z,101012.09
2019-04-20T19:10:21.023Z,101008.39
2019-04-20T19:13:06.657Z,101002.94
2019-04-20T19:15:51.072Z,101006.86
2019-04-20T19:18:38.182Z,101004.20
2019-04-20T19:21:03.661Z,101005.51
2019-04-20T19:23:35.192Z,101011.39
2019-04-20T19:26:09.629Z,101006.19
2019-04-20T19:28:42.802Z,101006.18
2019-04-20T19:31:19.416Z,101009.92
2019-04-20T19:34:04.642Z,101001.16
2019-04-20T19:36:19.936Z,100999.66
2019-04-20T19:38:54.719Z,101001.62
2019-04-20T19:41:25.286Z,101000.22
2019-04-20T19:43:55.027Z,101000.88
2019-04-20T19:46:44.083Z,100996.95
2019-04-20T19:48:56.068Z,101000.02
2019-04-20T19:51:43.516Z,100999.83
2019-04-20T19:54:12.159Z,100994.45
2019-04-20T19:56:37.282Z,101005.48
2019-04-20T19:59:05.147Z,100998.33
2019-04-20T20:01:22.047Z,101002.61
2019-04-20T20:03:57.513Z,101003.80
2019-04-20T20:06:29.356Z,101003.14
2019-04-20T20:09:00.570Z,101007.97
2019-04-20T20:11:31.937Z,101006.11
2019-04-20T20:13:59.166Z,101007.11
2019-04-20T20:16:50.650Z,101000.25
2019-04-20T20:19:08.503Z,101002.83
2019-04-20T20:21:46.784Z,101006.83
2019-04-20T20:24:04.048Z,101004.39
2019-04-20T20:26:38.725Z,101006.79
2019-04-20T20:29:12.496Z,101006.67
2019-04-20T20:31:53.021Z,101002.29
2019-04-20T20:34:17.162Z,100995.75
2019-04-20T20:36:47.492Z,100999.17
2019-04-20T20:39:20.016Z,100992.63
2019-04-20T20:41:56.413Z,100996.84
2019-04-20T20:44:27.608Z,100996.74
2019-04-20T20:47:10.688Z,100995.70
2019-04-20T20:49:41.925Z,100998.08
2019-04-20T20:52:08.239Z,100993.52
2019-04-20T20:54:33.690Z,100997.34
2019-04-20T20:57:01.411Z,100985.16
2019-04-20T20:59:35.856Z,100987.85
2019-04-20T21:02:05.812Z,100984.95
2019-04-20T21:04:25.766Z,100982.08
2019-04-20T21:06:55.392Z,100983.81
2019-04-20T21:09:25.645Z,100983.08
2019-04-20T21:12:01.799Z,100977.66
2019-04-20T21:14:31.135Z,100985.19
2019-04-20T21:17:05.192Z,100992.38
2019-04-20T21:19:50.296Z,100986.59
2019-04-20T21:22:16.516Z,100985.55
2019-04-20T21:24:47.071Z,100984.08
2019-04-20T21:27:22.177Z,100977.20
2019-04-20T21:29:59.974Z,100981.27
2019-04-20T21:32:41.692Z,100987.92
2019-04-20T21:35:12.777Z,100981.59
2019-04-20T21:37:52.480Z,100983.06
2019-04-20T21:40:27.953Z,100980.27
2019-04-20T21:42:55.560Z,100981.34
2019-04-20T21:45:25.547Z,100983.08
2019-04-20T21:47:52.587Z,100983.94
2019-04-20T21:50:37.043Z,100977.75
2019-04-20T21:52:58.730Z,100978.03
2019-04-20T21:55:25.939Z,100983.22
2019-04-20T21:58:00.013Z,100980.27
2019-04-20T22:00:39.058Z,100974.69
2019-04-20T22:03:06.298Z,100979.10
2019-04-20T22:05:34.624Z,100984.02
2019-04-20T22:08:08.960Z,100969.03
2019-04-20T22:10:36.663Z,100971.64
2019-04-20T22:13:06.278Z,100977.77
2019-04-20T22:15:45.695Z,100977.08
2019-04-20T22:18:12.356Z,100984.59
2019-04-20T22:20:53.264Z,100976.96
2019-04-20T22:23:30.603Z,100978.78
2019-04-20T22:25:58.056Z,100976.96
2019-04-20T22:28:14.291Z,100978.18
2019-04-20T22:30:48.301Z,100978.02
2019-04-20T22:33:23.601Z,100977.94
2019-04-20T22:35:57.693Z,100977.08
2019-04-20T22:38:37.641Z,100975.94
2019-04-20T22:41:11.028Z,100969.33
2019-04-20T22:43:40.188Z,100969.19
2019-04-20T22:46:07.896Z,100977.22
2019-04-20T22:48:45.015Z,100966.60
2019-04-20T22:51:27.959Z,100968.06
2019-04-20T22:53:49.809Z,100963.81
2019-04-20T22:56:29.722Z,100962.34
2019-04-20T22:58:55.577Z,100962.95
2019-04-20T23:01:19.403Z,100956.45
2019-04-20T23:03:45.074Z,100957.55
2019-04-20T23:06:14.651Z,100962.05
2019-04-20T23:08:47.302Z,100958.47
2019-04-20T23:11:21.661Z,100960.23
2019-04-20T23:13:48.144Z,100956.42
2019-04-20T23:16:17.632Z,100955.20
2019-04-20T23:18:47.029Z,100958.63
2019-04-20T23:21:17.607Z,100956.58
2019-04-20T23:23:47.197Z,100959.02
2019-04-20T23:26:24.301Z,100957.13
2019-04-20T23:28:51.824Z,100951.63
2019-04-20T23:31:22.089Z,100952.14
2019-04-20T23:33:49.955Z,100946.64
2019-04-20T23:36:29.218Z,100942.47
2019-04-20T23:38:54.646Z,100941.33
2019-04-20T23:41:21.909Z,100940.19
2019-04-20T23:44:01.755Z,100941.64
2019-04-20T23:46:34.986Z,100938.65
2019-04-20T23:49:29.915Z,100934.84
2019-04-20T23:52:21.714Z,100932.01
2019-04-20T23:54:30.324Z,100926.61
2019-04-20T23:56:57.772Z,100925.91
2019-04-20T23:59:35.800Z,100926.77
